Time;durP1;ratioP1;P1;durP2;ratioP2;P2;SDS_P1;SDS_P2;PMS_P1;PMS_P2;Temp;Humidity;BMP_temperature;BMP_pressure;BME280_temperature;BME280_humidity;BME280_pressure;Samples;Min_cycle;Max_cycle;Signal;HPM_P1;HPM_P2
2023/07/20 00:01:52;;;;;;;7.32;7.07;;;22.40;99.90;;;;;;5010513;28;20233;-62
2023/07/20 00:04:19;;;;;;;7.05;6.85;;;22.50;99.90;;;;;;5010290;28;20212;-63
2023/07/20 00:06:47;;;;;;;7.10;6.90;;;22.50;99.90;;;;;;5010181;28;20292;-63
2023/07/20 00:09:14;;;;;;;8.15;7.85;;;22.50;99.90;;;;;;5021412;28;20318;-61
2023/07/20 00:11:41;;;;;;;6.78;6.57;;;22.50;99.90;;;;;;5029176;28;20228;-64
2023/07/20 00:14:08;;;;;;;7.30;7.05;;;22.50;99.90;;;;;;5015710;28;20299;-62
2023/07/20 00:16:35;;;;;;;6.93;6.72;;;22.50;99.90;;;;;;5014095;28;20241;-62
2023/07/20 00:19:02;;;;;;;6.95;6.75;;;22.50;99.90;;;;;;5014040;28;20292;-62
2023/07/20 00:21:29;;;;;;;6.90;6.70;;;22.40;99.90;;;;;;5014452;28;20717;-64
2023/07/20 00:23:57;;;;;;;7.15;6.95;;;22.40;99.90;;;;;;5015507;28;20306;-62
2023/07/20 00:26:24;;;;;;;7.18;6.97;;;22.40;99.90;;;;;;5015234;28;20260;-62
2023/07/20 00:28:52;;;;;;;6.95;6.75;;;22.30;99.90;;;;;;5014387;28;20292;-62
2023/07/20 00:31:19;;;;;;;7.53;7.22;;;22.10;99.90;;;;;;5013136;28;20202;-61
2023/07/20 00:33:46;;;;;;;7.68;7.38;;;22.00;99.90;;;;;;5014481;28;20268;-64
2023/07/20 00:36:13;;;;;;;7.53;7.22;;;21.80;99.90;;;;;;5014910;28;20275;-62
2023/07/20 00:38:40;;;;;;;7.57;7.28;;;21.70;99.90;;;;;;5014842;28;20211;-63
2023/07/20 00:41:09;;;;;;;7.68;7.38;;;21.70;99.90;;;;;;5013785;28;20316;-63
2023/07/20 00:43:35;;;;;;;7.13;6.82;;;21.60;99.90;;;;;;5014500;28;20240;-62
2023/07/20 00:46:03;;;;;;;7.55;7.30;;;21.60;99.90;;;;;;5014631;28;20240;-63
2023/07/20 00:48:30;;;;;;;7.13;6.93;;;21.50;99.90;;;;;;5014621;28;20288;-62
2023/07/20 00:50:58;;;;;;;7.20;7.00;;;21.50;99.90;;;;;;5013390;28;20315;-62
2023/07/20 00:53:25;;;;;;;7.10;6.90;;;21.50;99.90;;;;;;5014032;28;20237;-62
2023/07/20 00:55:52;;;;;;;7.30;7.00;;;21.40;99.90;;;;;;5014525;28;20351;-64
2023/07/20 00:58:21;;;;;;;7.10;6.90;;;21.30;99.90;;;;;;5020487;28;20209;-65
2023/07/20 01:00:48;;;;;;;7.25;7.05;;;21.30;99.90;;;;;;5017646;28;20316;-63
2023/07/20 01:03:15;;;;;;;7.50;7.20;;;21.20;99.90;;;;;;5018873;28;20309;-61
2023/07/20 01:06:01;;;;;;;7.15;6.95;;;21.10;99.90;;;;;;5009901;28;20729;-62
2023/07/20 01:08:37;;;;;;;6.88;6.68;;;21.10;99.90;;;;;;5013825;28;20228;-62
2023/07/20 01:11:10;;;;;;;7.13;6.93;;;21.00;99.90;;;;;;5010237;22;20239;-60
2023/07/20 01:13:39;;;;;;;7.10;6.80;;;21.00;99.90;;;;;;4992170;28;20214;-60
2023/07/20 01:16:06;;;;;;;6.68;6.47;;;21.00;99.90;;;;;;4992409;28;20209;-59
2023/07/20 01:18:33;;;;;;;6.75;6.55;;;20.90;99.90;;;;;;4992551;28;20210;-60
2023/07/20 01:21:04;;;;;;;6.55;6.35;;;20.80;99.90;;;;;;4990912;28;20245;-59
2023/07/20 01:23:57;;;;;;;6.80;6.60;;;20.90;99.90;;;;;;4992702;28;20213;-60
2023/07/20 01:26:55;;;;;;;6.63;6.43;;;20.80;99.90;;;;;;4992279;28;20212;-59
2023/07/20 01:29:36;;;;;;;7.00;6.80;;;20.80;99.90;;;;;;4991399;28;20205;-60
2023/07/20 01:32:07;;;;;;;6.70;6.50;;;20.80;99.90;;;;;;4992365;28;20210;-60
2023/07/20 01:34:36;;;;;;;6.65;6.45;;;20.80;99.90;;;;;;4990328;28;20669;-59
2023/07/20 01:37:04;;;;;;;6.50;6.30;;;20.90;99.90;;;;;;4991720;28;20291;-59
2023/07/20 01:39:33;;;;;;;6.50;6.30;;;20.80;99.90;;;;;;4992142;28;20208;-59
2023/07/20 01:42:00;;;;;;;6.30;6.10;;;20.80;99.90;;;;;;4992675;28;20700;-59
2023/07/20 01:44:28;;;;;;;6.20;6.00;;;20.90;99.90;;;;;;4993055;28;20220;-59
2023/07/20 01:46:55;;;;;;;6.43;6.22;;;20.80;99.90;;;;;;4993043;28;20217;-59
2023/07/20 01:49:23;;;;;;;6.72;6.53;;;20.80;99.90;;;;;;4991283;28;20668;-60
2023/07/20 01:51:50;;;;;;;6.43;6.22;;;20.80;99.90;;;;;;4992276;28;20201;-59
2023/07/20 01:54:17;;;;;;;6.47;6.28;;;20.70;99.90;;;;;;4991888;28;20205;-59
2023/07/20 01:56:44;;;;;;;6.32;6.13;;;20.60;99.90;;;;;;4991863;28;20214;-59
2023/07/20 01:59:11;;;;;;;7.05;6.85;;;20.60;99.90;;;;;;4990791;28;20782;-60
2023/07/20 02:01:38;;;;;;;6.70;6.50;;;20.60;99.90;;;;;;4991256;28;20229;-59
2023/07/20 02:04:04;;;;;;;6.55;6.28;;;20.50;99.90;;;;;;4991692;28;20201;-59
2023/07/20 02:06:33;;;;;;;6.72;6.53;;;20.60;99.90;;;;;;4991643;28;20612;-59
2023/07/20 02:08:59;;;;;;;6.78;6.50;;;20.50;99.90;;;;;;4990924;28;20300;-59
2023/07/20 02:11:26;;;;;;;6.70;6.40;;;20.50;99.90;;;;;;4990719;28;20288;-60
2023/07/20 02:13:53;;;;;;;6.40;6.20;;;20.60;99.90;;;;;;4991395;28;20672;-60
2023/07/20 02:16:20;;;;;;;6.32;6.13;;;20.60;99.90;;;;;;4991549;28;20213;-59
2023/07/20 02:18:47;;;;;;;6.80;6.50;;;20.60;99.90;;;;;;4992167;28;20206;-59
2023/07/20 02:21:14;;;;;;;6.50;6.30;;;20.50;99.90;;;;;;4991506;28;20226;-59
2023/07/20 02:23:42;;;;;;;6.90;6.70;;;20.50;99.90;;;;;;4991663;28;20668;-60
2023/07/20 02:26:09;;;;;;;6.82;6.63;;;20.50;99.90;;;;;;4992299;28;20213;-59
2023/07/20 02:28:35;;;;;;;6.63;6.43;;;20.50;99.90;;;;;;4992255;28;20202;-59
2023/07/20 02:31:03;;;;;;;6.68;6.47;;;20.50;99.90;;;;;;4989603;28;20228;-60
2023/07/20 02:33:30;;;;;;;6.87;6.67;;;20.60;99.90;;;;;;4990808;28;20206;-60
2023/07/20 02:35:57;;;;;;;6.80;6.60;;;20.50;99.90;;;;;;4990799;28;20208;-60
2023/07/20 02:38:23;;;;;;;6.72;6.53;;;20.50;99.90;;;;;;4991047;28;20300;-60
2023/07/20 02:40:52;;;;;;;6.75;6.55;;;20.50;99.90;;;;;;4991118;28;20230;-59
2023/07/20 02:43:18;;;;;;;6.68;6.47;;;20.50;99.90;;;;;;4990915;28;20213;-60
2023/07/20 02:45:45;;;;;;;6.80;6.50;;;20.40;99.90;;;;;;4991397;28;20226;-60
2023/07/20 02:48:12;;;;;;;6.97;6.78;;;20.40;99.90;;;;;;4989219;28;20838;-59
2023/07/20 02:50:39;;;;;;;6.70;6.50;;;20.40;99.90;;;;;;4988575;28;20723;-60
2023/07/20 02:53:06;;;;;;;6.78;6.47;;;20.50;99.90;;;;;;4990728;28;20202;-60
2023/07/20 02:55:32;;;;;;;6.43;6.22;;;20.50;99.90;;;;;;4990740;28;20209;-60
2023/07/20 02:58:01;;;;;;;7.03;6.82;;;20.50;99.90;;;;;;4989650;28;20775;-60
2023/07/20 03:00:27;;;;;;;6.78;6.57;;;20.50;99.90;;;;;;4990705;28;20760;-60
2023/07/20 03:02:55;;;;;;;6.60;6.40;;;20.50;99.90;;;;;;4991433;28;20230;-60
2023/07/20 03:05:22;;;;;;;7.07;6.88;;;20.30;99.90;;;;;;4991773;28;20225;-60
2023/07/20 03:07:50;;;;;;;6.70;6.50;;;20.30;99.90;;;;;;4992057;28;20214;-60
2023/07/20 03:10:17;;;;;;;6.72;6.53;;;20.30;99.90;;;;;;4990869;28;20233;-60
2023/07/20 03:12:44;;;;;;;6.85;6.65;;;20.30;99.90;;;;;;4991998;28;20212;-60
2023/07/20 03:15:12;;;;;;;6.60;6.40;;;20.30;99.90;;;;;;4991872;28;20214;-60
2023/07/20 03:17:39;;;;;;;6.38;6.18;;;20.20;99.90;;;;;;4991577;28;20205;-60
2023/07/20 03:20:09;;;;;;;6.70;6.50;;;20.20;99.90;;;;;;4990890;28;20228;-60
2023/07/20 03:22:36;;;;;;;7.13;6.82;;;20.10;99.90;;;;;;4991576;28;20229;-59
2023/07/20 03:25:04;;;;;;;6.70;6.50;;;20.10;99.90;;;;;;4991866;28;20264;-60
2023/07/20 03:27:31;;;;;;;6.80;6.60;;;20.10;99.90;;;;;;4992072;28;20220;-59
2023/07/20 03:29:58;;;;;;;7.15;6.85;;;20.10;99.90;;;;;;4990161;28;20230;-60
2023/07/20 03:32:26;;;;;;;6.85;6.50;;;20.10;99.90;;;;;;4990327;28;20245;-60
2023/07/20 03:34:52;;;;;;;6.60;6.40;;;20.10;99.90;;;;;;4989839;28;20205;-59
2023/07/20 03:37:19;;;;;;;7.00;6.70;;;20.10;99.90;;;;;;4990032;28;20202;-59
2023/07/20 03:39:46;;;;;;;6.88;6.68;;;20.10;99.90;;;;;;4989315;28;20307;-59
2023/07/20 03:42:13;;;;;;;6.65;6.45;;;20.10;99.90;;;;;;4990206;28;20296;-60
2023/07/20 03:44:40;;;;;;;6.90;6.60;;;20.10;99.90;;;;;;4993854;28;20770;-60
2023/07/20 03:47:07;;;;;;;6.80;6.60;;;20.10;99.90;;;;;;4993850;28;20240;-60
2023/07/20 03:49:35;;;;;;;6.90;6.70;;;20.00;99.90;;;;;;5009174;28;20201;-60
2023/07/20 03:52:03;;;;;;;6.50;6.30;;;20.00;99.90;;;;;;5013815;28;20831;-60
2023/07/20 03:54:30;;;;;;;6.50;6.30;;;20.00;99.90;;;;;;5013489;28;20697;-59
2023/07/20 03:56:56;;;;;;;6.53;6.32;;;20.10;99.90;;;;;;5012854;28;20212;-60
2023/07/20 03:59:23;;;;;;;6.38;6.18;;;20.00;99.90;;;;;;4992822;28;20206;-59
2023/07/20 04:01:50;;;;;;;6.65;6.45;;;20.00;99.90;;;;;;4995233;28;20300;-59
2023/07/20 04:04:17;;;;;;;6.50;6.20;;;20.10;99.90;;;;;;4994672;28;20212;-59
2023/07/20 04:06:45;;;;;;;6.60;6.40;;;20.10;99.90;;;;;;4993430;28;20201;-59
2023/07/20 04:09:13;;;;;;;7.00;6.80;;;20.00;99.90;;;;;;4993893;28;20214;-59
2023/07/20 04:11:40;;;;;;;6.78;6.57;;;20.00;99.90;;;;;;4994561;28;20595;-59
2023/07/20 04:14:07;;;;;;;6.95;6.75;;;20.10;99.90;;;;;;4994458;28;20210;-59
2023/07/20 04:16:33;;;;;;;6.63;6.40;;;20.20;99.90;;;;;;4994535;28;20213;-59
2023/07/20 04:19:00;;;;;;;6.72;6.53;;;20.20;99.90;;;;;;4995667;28;20296;-59
2023/07/20 04:21:28;;;;;;;7.05;6.75;;;20.10;99.90;;;;;;5005245;28;20255;-59
2023/07/20 04:23:56;;;;;;;6.65;6.45;;;20.10;99.90;;;;;;4993062;28;20210;-60
2023/07/20 04:26:23;;;;;;;6.70;6.50;;;20.10;99.90;;;;;;5007275;28;20198;-59
2023/07/20 04:28:51;;;;;;;6.97;6.78;;;20.20;99.90;;;;;;4993025;28;20221;-59
2023/07/20 04:31:18;;;;;;;6.70;6.50;;;20.20;99.90;;;;;;4992001;28;20226;-60
2023/07/20 04:33:45;;;;;;;6.90;6.70;;;20.20;99.90;;;;;;4993143;28;20202;-60
2023/07/20 04:36:13;;;;;;;7.00;6.80;;;20.20;99.90;;;;;;4993140;28;20205;-60
2023/07/20 04:38:40;;;;;;;7.03;6.82;;;20.20;99.90;;;;;;4993212;28;20256;-59
2023/07/20 04:41:08;;;;;;;7.47;7.18;;;20.10;99.90;;;;;;4992030;28;20226;-61
2023/07/20 04:43:35;;;;;;;6.93;6.72;;;20.20;99.90;;;;;;4993175;28;20672;-61
2023/07/20 04:46:02;;;;;;;6.70;6.50;;;20.30;99.90;;;;;;4992344;28;21392;-60
2023/07/20 04:48:28;;;;;;;6.38;6.18;;;20.20;99.90;;;;;;4993223;28;20209;-59
2023/07/20 04:50:56;;;;;;;6.90;6.70;;;20.30;99.90;;;;;;4993440;28;20776;-59
2023/07/20 04:53:23;;;;;;;7.07;6.88;;;20.30;99.90;;;;;;4993621;28;20206;-59
2023/07/20 04:55:54;;;;;;;7.80;7.50;;;20.30;99.90;;;;;;4992625;28;20218;-59
2023/07/20 04:58:23;;;;;;;7.40;7.10;;;20.30;99.90;;;;;;4994195;28;20210;-59
2023/07/20 05:00:50;;;;;;;7.80;7.50;;;20.30;99.90;;;;;;4993530;28;20567;-59
2023/07/20 05:03:17;;;;;;;7.25;6.95;;;20.40;99.90;;;;;;4993987;28;20239;-59
2023/07/20 05:05:44;;;;;;;7.60;7.30;;;20.30;99.90;;;;;;5006813;28;20207;-59
2023/07/20 05:08:11;;;;;;;6.95;6.75;;;20.30;99.90;;;;;;5013591;28;20212;-60
2023/07/20 05:10:38;;;;;;;7.60;7.30;;;20.40;99.90;;;;;;5012762;28;20236;-60
2023/07/20 05:13:05;;;;;;;7.47;7.18;;;20.40;99.90;;;;;;5005344;28;20208;-59
2023/07/20 05:15:34;;;;;;;7.32;7.13;;;20.40;99.90;;;;;;4992047;28;20694;-59
2023/07/20 05:18:01;;;;;;;7.10;6.90;;;20.50;99.90;;;;;;4992360;28;20217;-61
2023/07/20 05:20:28;;;;;;;7.05;6.85;;;20.70;99.90;;;;;;4991909;28;20233;-58
2023/07/20 05:22:55;;;;;;;7.25;6.95;;;20.70;99.90;;;;;;4992379;28;20233;-61
2023/07/20 05:25:22;;;;;;;7.15;6.93;;;20.80;99.90;;;;;;4992341;28;20795;-61
2023/07/20 05:27:50;;;;;;;7.45;7.15;;;20.80;99.90;;;;;;4992865;28;20237;-61
2023/07/20 05:30:17;;;;;;;7.50;7.20;;;20.70;99.90;;;;;;4991066;28;20723;-59
2023/07/20 05:32:50;;;;;;;7.38;7.18;;;20.70;99.90;;;;;;4990502;28;20210;-59
2023/07/20 05:35:17;;;;;;;7.32;7.03;;;20.70;99.90;;;;;;4983316;28;20209;-59
2023/07/20 05:37:44;;;;;;;7.10;6.90;;;20.60;99.90;;;;;;4991983;28;20210;-59
2023/07/20 05:40:12;;;;;;;7.90;7.60;;;20.60;99.90;;;;;;4987429;28;20966;-62
2023/07/20 05:42:39;;;;;;;7.00;6.80;;;20.70;99.90;;;;;;4982648;28;20232;-60
2023/07/20 05:45:07;;;;;;;6.80;6.60;;;20.70;99.90;;;;;;4985441;28;20214;-60
2023/07/20 05:47:34;;;;;;;7.20;7.00;;;20.70;99.90;;;;;;4983965;28;20202;-60
2023/07/20 05:50:03;;;;;;;7.38;7.18;;;20.70;99.90;;;;;;4983619;28;21023;-59
2023/07/20 05:52:30;;;;;;;7.40;7.10;;;20.80;99.90;;;;;;4985856;28;20218;-59
2023/07/20 05:54:57;;;;;;;7.40;7.10;;;20.80;99.90;;;;;;4987583;28;20317;-60
2023/07/20 05:57:24;;;;;;;6.88;6.68;;;20.80;99.90;;;;;;4987574;28;20202;-60
2023/07/20 05:59:51;;;;;;;7.38;7.10;;;20.80;99.90;;;;;;4989076;28;20222;-60
2023/07/20 06:02:17;;;;;;;7.07;6.88;;;20.90;99.90;;;;;;4982813;28;20219;-60
2023/07/20 06:04:44;;;;;;;7.20;7.00;;;21.00;99.90;;;;;;4988312;28;20205;-59
2023/07/20 06:07:12;;;;;;;6.73;6.53;;;21.10;99.90;;;;;;4991089;28;20687;-61
2023/07/20 06:09:39;;;;;;;7.30;6.90;;;21.20;99.90;;;;;;4990697;28;20212;-59
2023/07/20 06:12:07;;;;;;;6.72;6.53;;;21.30;99.90;;;;;;4991498;28;20577;-59
2023/07/20 06:14:34;;;;;;;6.60;6.40;;;21.30;99.90;;;;;;4991104;28;20206;-59
2023/07/20 06:17:01;;;;;;;6.97;6.72;;;21.50;99.90;;;;;;4990946;28;20509;-64
2023/07/20 06:19:28;;;;;;;7.03;6.82;;;21.60;99.90;;;;;;4990272;28;20206;-65
2023/07/20 06:21:54;;;;;;;7.13;6.82;;;21.70;99.90;;;;;;4991011;28;20205;-65
2023/07/20 06:24:23;;;;;;;7.63;7.32;;;21.70;99.90;;;;;;4991331;28;20220;-65
2023/07/20 06:26:49;;;;;;;7.53;7.25;;;21.70;99.90;;;;;;4990302;28;20201;-65
2023/07/20 06:29:16;;;;;;;8.30;8.00;;;21.70;99.90;;;;;;4990186;28;20518;-65
2023/07/20 06:31:43;;;;;;;7.65;7.35;;;21.80;99.90;;;;;;4990470;28;20222;-64
2023/07/20 06:34:10;;;;;;;7.80;7.50;;;21.80;99.90;;;;;;4990966;28;20267;-65
2023/07/20 06:36:37;;;;;;;7.60;7.30;;;21.90;99.90;;;;;;4990228;28;20301;-64
2023/07/20 06:39:04;;;;;;;7.15;6.95;;;22.00;99.90;;;;;;4990251;28;20201;-65
2023/07/20 06:41:32;;;;;;;7.70;7.40;;;22.10;99.90;;;;;;4990543;28;20242;-65
2023/07/20 06:43:59;;;;;;;7.72;7.43;;;22.10;99.90;;;;;;4990026;28;20225;-66
2023/07/20 06:46:26;;;;;;;8.10;7.70;;;22.10;99.90;;;;;;4990790;28;20256;-65
2023/07/20 06:48:54;;;;;;;7.32;7.13;;;22.10;99.90;;;;;;4990697;28;20507;-65
2023/07/20 06:51:21;;;;;;;8.02;7.72;;;22.10;99.90;;;;;;4989855;28;20233;-65
2023/07/20 06:53:48;;;;;;;7.93;7.63;;;22.00;99.90;;;;;;4990763;28;20296;-65
2023/07/20 06:56:15;;;;;;;8.15;7.85;;;22.10;99.90;;;;;;4990560;28;20216;-65
2023/07/20 06:58:43;;;;;;;8.30;7.90;;;22.00;99.90;;;;;;4990035;28;20214;-65
2023/07/20 07:01:10;;;;;;;8.80;8.50;;;22.00;99.90;;;;;;4988432;28;20712;-64
2023/07/20 07:03:37;;;;;;;8.00;7.70;;;22.00;99.90;;;;;;4990398;28;20232;-64
2023/07/20 07:06:04;;;;;;;7.68;7.38;;;22.00;99.90;;;;;;4990384;28;20542;-64
2023/07/20 07:08:31;;;;;;;8.10;7.63;;;22.10;99.90;;;;;;4990515;28;20210;-64
2023/07/20 07:10:58;;;;;;;7.70;7.40;;;22.10;99.90;;;;;;4989318;28;20308;-64
2023/07/20 07:13:25;;;;;;;8.07;7.78;;;22.00;99.90;;;;;;4990529;28;20608;-64
2023/07/20 07:15:53;;;;;;;7.97;7.68;;;22.00;99.90;;;;;;4990587;28;20292;-64
2023/07/20 07:18:21;;;;;;;7.45;7.15;;;22.20;99.90;;;;;;4993711;28;20208;-64
2023/07/20 07:20:54;;;;;;;7.55;7.25;;;22.10;99.90;;;;;;4996122;28;20229;-64
2023/07/20 07:23:23;;;;;;;7.85;7.55;;;22.10;99.90;;;;;;4996936;28;20222;-63
2023/07/20 07:25:50;;;;;;;7.85;7.55;;;22.10;99.90;;;;;;4996839;28;20723;-64
2023/07/20 07:28:17;;;;;;;7.80;7.50;;;22.40;99.90;;;;;;4996908;28;20292;-64
2023/07/20 07:30:44;;;;;;;7.32;7.13;;;22.60;99.90;;;;;;5025389;22;20327;-66
2023/07/20 07:33:12;;;;;;;7.68;7.38;;;22.70;99.90;;;;;;5012608;28;20193;-64
2023/07/20 07:35:39;;;;;;;7.20;7.00;;;22.90;99.90;;;;;;5017639;28;20213;-67
2023/07/20 07:38:06;;;;;;;8.27;7.90;;;22.90;99.90;;;;;;5017546;28;20209;-66
2023/07/20 07:40:33;;;;;;;7.60;7.30;;;22.90;99.90;;;;;;5015839;28;20320;-65
2023/07/20 07:43:00;;;;;;;7.45;7.20;;;22.90;99.90;;;;;;5017651;28;20229;-68
2023/07/20 07:45:27;;;;;;;7.10;6.90;;;23.20;99.90;;;;;;5021411;28;20205;-67
2023/07/20 07:47:54;;;;;;;7.88;7.57;;;23.40;99.90;;;;;;5029333;28;20925;-65
2023/07/20 07:50:22;;;;;;;7.63;7.32;;;23.60;99.90;;;;;;5015743;28;20318;-67
2023/07/20 07:52:49;;;;;;;7.55;7.28;;;23.60;99.90;;;;;;5016463;28;20231;-66
2023/07/20 07:55:17;;;;;;;7.07;6.88;;;23.50;99.90;;;;;;5016177;28;20211;-67
2023/07/20 07:57:44;;;;;;;7.30;7.10;;;23.50;99.90;;;;;;5016766;28;20215;-67
2023/07/20 08:00:14;;;;;;;7.20;7.00;;;23.60;99.90;;;;;;5015636;28;20731;-65
2023/07/20 08:02:42;;;;;;;7.30;7.00;;;23.70;99.90;;;;;;5015742;28;20280;-67
2023/07/20 08:05:09;;;;;;;7.50;7.30;;;23.80;99.90;;;;;;5016564;28;20558;-66
2023/07/20 08:07:37;;;;;;;7.72;7.43;;;23.90;99.90;;;;;;5016327;28;20220;-65
2023/07/20 08:10:05;;;;;;;7.55;7.28;;;24.10;99.90;;;;;;5015878;28;20240;-67
2023/07/20 08:12:32;;;;;;;7.43;7.13;;;24.30;99.90;;;;;;5016638;28;20215;-66
2023/07/20 08:14:59;;;;;;;7.97;7.68;;;24.20;99.90;;;;;;5016144;28;20205;-66
2023/07/20 08:17:26;;;;;;;8.63;8.32;;;24.30;99.90;;;;;;5016370;28;20228;-65
2023/07/20 08:19:52;;;;;;;8.20;7.90;;;24.20;99.90;;;;;;5015560;28;20221;-66
2023/07/20 08:22:19;;;;;;;9.13;8.77;;;24.10;99.90;;;;;;5016290;28;20243;-67
2023/07/20 08:24:48;;;;;;;8.35;8.00;;;24.20;99.90;;;;;;5016247;28;20671;-66
2023/07/20 08:27:15;;;;;;;7.70;7.40;;;24.20;99.90;;;;;;5017072;28;20223;-67
2023/07/20 08:29:41;;;;;;;7.35;7.15;;;24.00;99.90;;;;;;5014477;28;20932;-68
2023/07/20 08:32:09;;;;;;;7.53;7.22;;;24.20;99.90;;;;;;5013259;28;20205;-66
2023/07/20 08:34:36;;;;;;;7.80;7.40;;;24.30;99.90;;;;;;5014427;28;20211;-65
2023/07/20 08:37:03;;;;;;;7.63;7.32;;;24.40;99.90;;;;;;5014523;28;20227;-66
2023/07/20 08:39:29;;;;;;;8.00;7.70;;;24.60;99.90;;;;;;5013446;28;20232;-67
2023/07/20 08:42:04;;;;;;;7.53;7.22;;;24.60;99.90;;;;;;5014496;28;20209;-65
2023/07/20 08:44:33;;;;;;;10.05;9.65;;;24.50;99.90;;;;;;5014640;28;20220;-65
2023/07/20 08:47:02;;;;;;;8.68;8.38;;;24.70;99.90;;;;;;5014814;28;20209;-68
2023/07/20 08:49:30;;;;;;;8.30;8.00;;;24.70;99.90;;;;;;5023389;28;20343;-67
2023/07/20 08:51:57;;;;;;;8.20;7.90;;;24.80;99.90;;;;;;5039454;28;20240;-66
2023/07/20 08:54:25;;;;;;;8.20;7.90;;;24.90;99.90;;;;;;5038917;28;20197;-68
2023/07/20 08:56:52;;;;;;;8.45;8.15;;;24.90;99.90;;;;;;5040557;28;20240;-65
2023/07/20 08:59:21;;;;;;;8.38;8.07;;;25.00;99.90;;;;;;5033423;28;20704;-66
2023/07/20 09:01:48;;;;;;;9.45;9.05;;;25.10;99.90;;;;;;5039050;28;20204;-68
2023/07/20 09:04:16;;;;;;;9.55;9.18;;;25.20;99.90;;;;;;5033643;28;20318;-66
2023/07/20 09:06:43;;;;;;;11.32;10.93;;;25.20;99.90;;;;;;5033833;28;20251;-67
2023/07/20 09:09:11;;;;;;;12.07;11.63;;;25.20;99.90;;;;;;5032919;28;20296;-67
2023/07/20 09:11:38;;;;;;;8.02;7.72;;;25.30;99.90;;;;;;5033100;28;20211;-67
2023/07/20 09:14:06;;;;;;;8.68;8.38;;;25.50;99.90;;;;;;5033210;28;20201;-67
2023/07/20 09:16:48;;;;;;;8.05;7.75;;;25.70;99.90;;;;;;5034639;28;20207;-66
2023/07/20 09:19:16;;;;;;;9.13;8.73;;;25.90;99.90;;;;;;5031655;28;20212;-65
2023/07/20 09:21:46;;;;;;;8.70;8.40;;;26.00;99.90;;;;;;5032296;28;20776;-66
2023/07/20 09:24:13;;;;;;;9.70;9.40;;;26.10;99.90;;;;;;5032762;28;20224;-66
2023/07/20 09:26:43;;;;;;;9.18;8.88;;;26.30;99.90;;;;;;5034582;28;20674;-65
2023/07/20 09:29:09;;;;;;;9.88;9.50;;;26.40;99.90;;;;;;5031689;28;20200;-68
2023/07/20 09:31:38;;;;;;;9.93;9.60;;;26.50;99.90;;;;;;5032319;28;20255;-66
2023/07/20 09:34:05;;;;;;;10.52;10.20;;;26.70;99.90;;;;;;5033737;28;20204;-66
2023/07/20 09:36:35;;;;;;;12.73;12.23;;;26.90;99.90;;;;;;5033537;28;20208;-66
2023/07/20 09:39:03;;;;;;;16.92;16.33;;;26.70;99.90;;;;;;5031760;28;20204;-65
2023/07/20 09:41:31;;;;;;;12.30;11.90;;;26.40;99.90;;;;;;5033044;28;20200;-66
2023/07/20 09:43:57;;;;;;;12.02;11.63;;;26.20;99.90;;;;;;5032577;28;20233;-67
2023/07/20 09:46:24;;;;;;;8.98;8.68;;;25.80;99.90;;;;;;5032781;28;20205;-67
2023/07/20 09:48:55;;;;;;;11.40;11.00;;;25.50;99.90;;;;;;5032424;28;20579;-67
2023/07/20 09:51:23;;;;;;;7.88;7.57;;;25.30;99.90;;;;;;5031846;28;20228;-67
2023/07/20 09:53:53;;;;;;;7.47;7.18;;;25.00;99.90;;;;;;5033240;28;20205;-65
2023/07/20 09:56:23;;;;;;;7.15;6.95;;;25.10;99.90;;;;;;5032792;28;20243;-66
2023/07/20 09:58:50;;;;;;;8.50;8.20;;;25.60;99.90;;;;;;5032278;28;20754;-67
2023/07/20 10:01:21;;;;;;;8.75;8.45;;;26.00;99.90;;;;;;5031724;28;20232;-67
2023/07/20 10:03:49;;;;;;;10.15;9.75;;;25.80;99.90;;;;;;5032320;28;20299;-66
2023/07/20 10:06:23;;;;;;;8.38;8.07;;;25.60;99.90;;;;;;5032537;28;20211;-66
2023/07/20 10:08:53;;;;;;;7.68;7.40;;;25.40;99.90;;;;;;5032270;28;20217;-65
2023/07/20 10:11:25;;;;;;;8.25;7.95;;;25.50;99.90;;;;;;5031421;28;20247;-68
2023/07/20 10:13:54;;;;;;;8.57;8.27;;;25.90;99.90;;;;;;5032095;28;20211;-68
2023/07/20 10:16:27;;;;;;;9.25;8.95;;;26.30;99.90;;;;;;5031826;28;20563;-65
2023/07/20 10:19:02;;;;;;;10.23;9.82;;;26.70;99.90;;;;;;5032305;28;20197;-66
2023/07/20 10:21:31;;;;;;;9.88;9.57;;;27.00;99.90;;;;;;5031882;28;20324;-66
2023/07/20 10:23:59;;;;;;;23.70;22.65;;;27.20;99.90;;;;;;5031926;28;20263;-66
2023/07/20 10:26:26;;;;;;;50.35;47.88;;;27.20;99.90;;;;;;5032298;28;20275;-66
2023/07/20 10:28:54;;;;;;;8.68;8.38;;;27.10;99.90;;;;;;5043747;28;20200;-63
2023/07/20 10:31:23;;;;;;;9.90;9.23;;;27.00;99.90;;;;;;5046189;28;20223;-66
2023/07/20 10:33:50;;;;;;;7.25;7.05;;;26.60;99.90;;;;;;5041909;28;20247;-68
2023/07/20 10:36:25;;;;;;;8.77;8.48;;;26.40;99.90;;;;;;5035585;28;20216;-66
2023/07/20 10:38:56;;;;;;;16.33;15.63;;;26.60;99.90;;;;;;5032270;28;20204;-66
2023/07/20 10:41:28;;;;;;;8.50;8.20;;;26.60;99.90;;;;;;5037151;28;20255;-65
2023/07/20 10:44:00;;;;;;;8.25;7.95;;;26.60;99.90;;;;;;5045918;28;20615;-65
2023/07/20 10:46:35;;;;;;;11.55;11.15;;;26.50;99.90;;;;;;5031974;28;20207;-66
2023/07/20 10:49:04;;;;;;;9.57;9.07;;;26.40;99.90;;;;;;5030833;28;20748;-66
2023/07/20 10:51:31;;;;;;;8.55;8.25;;;26.20;99.90;;;;;;5030517;28;20225;-65
2023/07/20 10:54:02;;;;;;;7.95;7.65;;;26.00;99.90;;;;;;5029565;28;20606;-65
2023/07/20 10:56:29;;;;;;;8.35;8.05;;;25.90;99.90;;;;;;5030586;28;20204;-66
2023/07/20 10:58:59;;;;;;;8.52;8.23;;;25.80;99.90;;;;;;5031800;28;20204;-66
2023/07/20 11:01:29;;;;;;;7.15;6.95;;;25.70;99.90;;;;;;5029973;28;20272;-66
2023/07/20 11:04:00;;;;;;;8.65;8.25;;;25.60;99.90;;;;;;5029860;28;20750;-66
2023/07/20 11:06:34;;;;;;;8.20;7.90;;;25.70;99.90;;;;;;5030219;28;20212;-66
2023/07/20 11:09:15;;;;;;;8.20;7.90;;;26.00;99.90;;;;;;5028950;28;20208;-65
2023/07/20 11:11:43;;;;;;;9.68;9.30;;;26.00;99.90;;;;;;5024354;28;20616;-67
2023/07/20 11:14:11;;;;;;;7.15;6.95;;;26.00;99.90;;;;;;5008979;28;20197;-68
2023/07/20 11:16:40;;;;;;;8.32;8.02;;;26.20;99.90;;;;;;5009116;28;20209;-67
2023/07/20 11:19:15;;;;;;;9.07;8.77;;;26.50;99.90;;;;;;5023026;28;20204;-66
2023/07/20 11:21:44;;;;;;;7.30;7.00;;;26.80;99.90;;;;;;5027952;28;20220;-66
2023/07/20 11:24:13;;;;;;;7.95;7.65;;;27.00;99.90;;;;;;5028373;28;20228;-66
2023/07/20 11:26:45;;;;;;;8.18;7.88;;;27.30;99.90;;;;;;5028201;28;20698;-68
2023/07/20 11:29:12;;;;;;;9.30;9.00;;;27.40;99.90;;;;;;5027273;28;20212;-66
2023/07/20 11:31:39;;;;;;;17.92;17.25;;;27.70;99.90;;;;;;4988796;28;20210;-65
2023/07/20 11:34:07;;;;;;;10.80;10.43;;;27.60;99.90;;;;;;4989459;28;20202;-67
2023/07/20 11:36:34;;;;;;;9.00;8.70;;;27.60;99.90;;;;;;4989886;28;20214;-66
2023/07/20 11:39:04;;;;;;;7.63;7.38;;;27.50;99.90;;;;;;4990156;28;20268;-67
2023/07/20 11:41:33;;;;;;;9.80;9.48;;;27.70;99.90;;;;;;4989815;28;20210;-65
2023/07/20 11:44:00;;;;;;;12.32;11.93;;;28.00;99.90;;;;;;4989769;28;20269;-66
2023/07/20 11:46:28;;;;;;;13.55;13.07;;;27.90;99.90;;;;;;4989636;28;20206;-67
2023/07/20 11:48:59;;;;;;;11.27;10.88;;;27.80;99.90;;;;;;4989390;28;20210;-68
2023/07/20 11:51:27;;;;;;;60.72;57.70;;;27.60;99.90;;;;;;4990919;28;20801;-68
2023/07/20 11:53:54;;;;;;;52.72;49.53;;;27.50;99.90;;;;;;4990046;28;20295;-66
2023/07/20 11:56:21;;;;;;;8.02;7.72;;;27.10;99.90;;;;;;4990633;28;20241;-66
2023/07/20 11:58:49;;;;;;;16.15;15.52;;;27.20;99.90;;;;;;4989878;28;20246;-66
2023/07/20 12:01:20;;;;;;;12.75;12.32;;;27.30;99.90;;;;;;4992138;28;20237;-68
2023/07/20 12:03:49;;;;;;;10.00;9.60;;;27.20;99.90;;;;;;4993465;28;20214;-65
2023/07/20 12:06:15;;;;;;;8.65;8.35;;;27.20;99.90;;;;;;5003869;28;20208;-65
2023/07/20 12:08:44;;;;;;;7.45;7.25;;;27.20;99.90;;;;;;5012776;28;20863;-67
2023/07/20 12:11:11;;;;;;;16.05;15.43;;;27.30;99.90;;;;;;5013412;28;20280;-65
2023/07/20 12:13:39;;;;;;;9.10;8.80;;;27.50;99.90;;;;;;5016429;28;20310;-66
2023/07/20 12:16:14;;;;;;;8.07;7.78;;;27.40;99.90;;;;;;5013947;28;20216;-66
2023/07/20 12:18:41;;;;;;;7.60;7.30;;;27.50;99.90;;;;;;5014037;28;20698;-66
2023/07/20 12:21:09;;;;;;;7.13;6.93;;;27.50;99.90;;;;;;5012589;28;20711;-66
2023/07/20 12:23:37;;;;;;;7.15;6.95;;;27.90;99.90;;;;;;5013057;28;20205;-71
2023/07/20 12:26:07;;;;;;;7.75;7.45;;;28.30;99.90;;;;;;5013315;28;20209;-66
2023/07/20 12:28:33;;;;;;;9.45;9.07;;;28.60;99.90;;;;;;5013587;28;20213;-64
2023/07/20 12:31:00;;;;;;;27.83;26.70;;;28.70;99.90;;;;;;5012514;28;20332;-67
2023/07/20 12:33:29;;;;;;;8.40;8.10;;;28.50;99.90;;;;;;5017313;28;20260;-67
2023/07/20 12:35:58;;;;;;;9.40;9.10;;;28.10;99.90;;;;;;5019455;28;20208;-66
2023/07/20 12:38:25;;;;;;;8.48;8.15;;;28.00;99.90;;;;;;5014130;28;20209;-66
2023/07/20 12:40:52;;;;;;;12.00;11.60;;;28.10;99.90;;;;;;5026799;28;20292;-64
2023/07/20 12:43:19;;;;;;;11.95;11.55;;;28.00;99.90;;;;;;5025092;28;20293;-66
2023/07/20 12:45:46;;;;;;;13.73;13.25;;;28.10;99.90;;;;;;5015072;28;20221;-67
2023/07/20 12:48:12;;;;;;;21.67;20.77;;;28.00;99.90;;;;;;5014249;28;20212;-67
2023/07/20 12:50:41;;;;;;;9.55;9.25;;;27.90;99.90;;;;;;5013792;28;20225;-65